sensor_id;sensor_type;location;lat;lon;timestamp;pressure;altitude;pressure_sealevel;temperature;humidity
59987;BME280;46181;51.498;5.392;2023-04-08T00:03:09;102155.3;;;13.83;58.71777
59987;BME280;46181;51.498;5.392;2023-04-08T00:07:39;102155.8;;;13.85;58.69922
59987;BME280;46181;51.498;5.392;2023-04-08T00:12:09;102159.4;;;13.89;58.6582
59987;BME280;46181;51.498;5.392;2023-04-08T00:16:39;102151.3;;;13.89;58.62402
59987;BME280;46181;51.498;5.392;2023-04-08T00:21:09;102153.1;;;13.9;58.7168
59987;BME280;46181;51.498;5.392;2023-04-08T00:25:39;102153.4;;;13.9;58.77344
59987;BME280;46181;51.498;5.392;2023-04-08T00:30:09;102150.3;;;13.9;58.7627
59987;BME280;46181;51.498;5.392;2023-04-08T00:34:39;102151.7;;;13.9;58.74023
59987;BME280;46181;51.498;5.392;2023-04-08T00:39:09;102155.4;;;13.89;58.8623
59987;BME280;46181;51.498;5.392;2023-04-08T00:43:39;102148.4;;;13.89;58.88574
59987;BME280;46181;51.498;5.392;2023-04-08T00:48:09;102158.3;;;13.87;58.90527
59987;BME280;46181;51.498;5.392;2023-04-08T00:52:39;102163.8;;;13.9;59.02344
59987;BME280;46181;51.498;5.392;2023-04-08T00:57:09;102161.5;;;13.91;59.01367
59987;BME280;46181;51.498;5.392;2023-04-08T01:01:43;102163.4;;;13.91;59.09277
59987;BME280;46181;51.498;5.392;2023-04-08T01:06:24;102162.8;;;13.91;59.17285
59987;BME280;46181;51.498;5.392;2023-04-08T01:10:41;102166.5;;;13.97;59.14551
59987;BME280;46181;51.498;5.392;2023-04-08T01:15:11;102162.8;;;14;59.10449
59987;BME280;46181;51.498;5.392;2023-04-08T01:19:41;102159.9;;;14;59.05859
59987;BME280;46181;51.498;5.392;2023-04-08T01:24:15;102167.8;;;13.98;59.1582
59987;BME280;46181;51.498;5.392;2023-04-08T01:28:39;102166.2;;;14.03;59.09766
59987;BME280;46181;51.498;5.392;2023-04-08T01:33:10;102175.1;;;14;59.19434
59987;BME280;46181;51.498;5.392;2023-04-08T01:37:39;102174.4;;;13.95;59.31348
59987;BME280;46181;51.498;5.392;2023-04-08T01:42:09;102174.7;;;13.92;59.41113
59987;BME280;46181;51.498;5.392;2023-04-08T01:46:39;102179.3;;;13.87;59.51758
59987;BME280;46181;51.498;5.392;2023-04-08T01:51:09;102181.6;;;13.82;59.61426
59987;BME280;46181;51.498;5.392;2023-04-08T01:55:40;102182.6;;;13.75;59.87598
59987;BME280;46181;51.498;5.392;2023-04-08T02:00:11;102186.9;;;13.73;60.06641
59987;BME280;46181;51.498;5.392;2023-04-08T02:04:39;102179.9;;;13.7;60.13086
59987;BME280;46181;51.498;5.392;2023-04-08T02:09:09;102184;;;13.69;60.2998
59987;BME280;46181;51.498;5.392;2023-04-08T02:13:40;102183.2;;;13.66;60.41895
59987;BME280;46181;51.498;5.392;2023-04-08T02:18:14;102183.2;;;13.61;60.57031
59987;BME280;46181;51.498;5.392;2023-04-08T02:22:46;102186.1;;;13.56;60.68848
59987;BME280;46181;51.498;5.392;2023-04-08T02:27:10;102181.6;;;13.59;60.7041
59987;BME280;46181;51.498;5.392;2023-04-08T02:31:39;102189.4;;;13.61;60.74023
59987;BME280;46181;51.498;5.392;2023-04-08T02:36:10;102191.3;;;13.57;60.84863
59987;BME280;46181;51.498;5.392;2023-04-08T02:40:40;102190.3;;;13.57;60.99414
59987;BME280;46181;51.498;5.392;2023-04-08T02:45:09;102194.6;;;13.59;61.10059
59987;BME280;46181;51.498;5.392;2023-04-08T02:49:39;102197.8;;;13.57;61.16602
59987;BME280;46181;51.498;5.392;2023-04-08T02:54:09;102202.5;;;13.55;61.28613
59987;BME280;46181;51.498;5.392;2023-04-08T02:58:39;102204.3;;;13.55;61.36719
59987;BME280;46181;51.498;5.392;2023-04-08T03:03:09;102204.6;;;13.56;61.53809
59987;BME280;46181;51.498;5.392;2023-04-08T03:07:39;102205.6;;;13.53;61.6123
59987;BME280;46181;51.498;5.392;2023-04-08T03:12:09;102207.8;;;13.56;61.73047
59987;BME280;46181;51.498;5.392;2023-04-08T03:16:39;102208.6;;;13.61;61.74805
59987;BME280;46181;51.498;5.392;2023-04-08T03:21:09;102202;;;13.64;61.65039
59987;BME280;46181;51.498;5.392;2023-04-08T03:25:39;102203;;;13.66;61.76563
59987;BME280;46181;51.498;5.392;2023-04-08T03:30:09;102204.8;;;13.68;61.79199
59987;BME280;46181;51.498;5.392;2023-04-08T03:34:39;102205.9;;;13.69;61.81738
59987;BME280;46181;51.498;5.392;2023-04-08T03:39:09;102206.9;;;13.71;61.84277
59987;BME280;46181;51.498;5.392;2023-04-08T03:43:39;102207.5;;;13.73;61.82227
59987;BME280;46181;51.498;5.392;2023-04-08T03:48:09;102203.1;;;13.72;61.85352
59987;BME280;46181;51.498;5.392;2023-04-08T03:52:39;102207.5;;;13.71;61.86426
59987;BME280;46181;51.498;5.392;2023-04-08T03:57:09;102215.6;;;13.69;61.97461
59987;BME280;46181;51.498;5.392;2023-04-08T04:01:39;102217.4;;;13.67;62.00781
59987;BME280;46181;51.498;5.392;2023-04-08T04:06:09;102213.1;;;13.66;62.07324
59987;BME280;46181;51.498;5.392;2023-04-08T04:10:39;102211.7;;;13.66;62.10645
59987;BME280;46181;51.498;5.392;2023-04-08T04:15:10;102210.4;;;13.67;62.09766
59987;BME280;46181;51.498;5.392;2023-04-08T04:19:41;102218.4;;;13.66;62.20898
59987;BME280;46181;51.498;5.392;2023-04-08T04:24:09;102224.3;;;13.68;62.21094
59987;BME280;46181;51.498;5.392;2023-04-08T04:28:39;102229.2;;;13.68;62.25684
59987;BME280;46181;51.498;5.392;2023-04-08T04:33:09;102235.6;;;13.72;62.25195
59987;BME280;46181;51.498;5.392;2023-04-08T04:37:39;102235.6;;;13.73;62.28711
59987;BME280;46181;51.498;5.392;2023-04-08T04:42:09;102241.3;;;13.73;62.25293
59987;BME280;46181;51.498;5.392;2023-04-08T04:46:39;102239.1;;;13.72;62.35254
59987;BME280;46181;51.498;5.392;2023-04-08T04:51:09;102252.6;;;13.71;62.39648
59987;BME280;46181;51.498;5.392;2023-04-08T04:55:39;102254;;;13.7;62.50977
59987;BME280;46181;51.498;5.392;2023-04-08T05:00:10;102258.8;;;13.69;62.47266
59987;BME280;46181;51.498;5.392;2023-04-08T05:04:39;102261;;;13.56;62.45508
59987;BME280;46181;51.498;5.392;2023-04-08T05:09:09;102264;;;13.45;62.76758
59987;BME280;46181;51.498;5.392;2023-04-08T05:13:40;102270.1;;;13.39;62.84961
59987;BME280;46181;51.498;5.392;2023-04-08T05:18:09;102273.8;;;13.34;63.09082
59987;BME280;46181;51.498;5.392;2023-04-08T05:22:39;102274.1;;;13.28;63.22949
59987;BME280;46181;51.498;5.392;2023-04-08T05:27:09;102278.7;;;13.29;63.26367
59987;BME280;46181;51.498;5.392;2023-04-08T05:31:43;102284.4;;;13.23;63.38086
59987;BME280;46181;51.498;5.392;2023-04-08T05:36:09;102280.8;;;13.27;63.46484
59987;BME280;46181;51.498;5.392;2023-04-08T05:40:39;102287.3;;;13.29;63.45605
59987;BME280;46181;51.498;5.392;2023-04-08T05:45:10;102291;;;13.33;63.49609
59987;BME280;46181;51.498;5.392;2023-04-08T05:49:39;102290.9;;;13.36;63.4209
59987;BME280;46181;51.498;5.392;2023-04-08T05:54:09;102294.7;;;13.36;63.33105
59987;BME280;46181;51.498;5.392;2023-04-08T05:58:39;102302.5;;;13.4;63.40527
59987;BME280;46181;51.498;5.392;2023-04-08T06:03:09;102305;;;13.43;63.1709
59987;BME280;46181;51.498;5.392;2023-04-08T06:07:40;102307.8;;;13.43;63.11426
59987;BME280;46181;51.498;5.392;2023-04-08T06:12:09;102310.3;;;13.45;63.17578
59987;BME280;46181;51.498;5.392;2023-04-08T06:16:39;102316.3;;;13.5;63.10254
59987;BME280;46181;51.498;5.392;2023-04-08T06:21:09;102324.1;;;13.52;63.09473
59987;BME280;46181;51.498;5.392;2023-04-08T06:25:39;102325.5;;;13.63;63.17871
59987;BME280;46181;51.498;5.392;2023-04-08T06:30:10;102330.6;;;13.77;62.89258
59987;BME280;46181;51.498;5.392;2023-04-08T06:34:39;102333.7;;;13.74;62.51465
59987;BME280;46181;51.498;5.392;2023-04-08T06:39:09;102347.1;;;13.75;62.4707
59987;BME280;46181;51.498;5.392;2023-04-08T06:43:39;102347.8;;;13.72;62.36328
59987;BME280;46181;51.498;5.392;2023-04-08T06:48:09;102348.4;;;13.92;62.46094
59987;BME280;46181;51.498;5.392;2023-04-08T06:52:39;102348.7;;;14.1;61.94141
59987;BME280;46181;51.498;5.392;2023-04-08T06:57:09;102355.1;;;14.2;61.49023
59987;BME280;46181;51.498;5.392;2023-04-08T07:01:39;102359.8;;;14.27;61.00293
59987;BME280;46181;51.498;5.392;2023-04-08T07:06:09;102365;;;14.36;60.76367
59987;BME280;46181;51.498;5.392;2023-04-08T07:10:39;102374.7;;;14.54;60.67578
59987;BME280;46181;51.498;5.392;2023-04-08T07:15:10;102376.9;;;14.65;60.20313
59987;BME280;46181;51.498;5.392;2023-04-08T07:19:39;102385.3;;;14.81;59.97559
59987;BME280;46181;51.498;5.392;2023-04-08T07:24:09;102385.9;;;14.8;59.48535
59987;BME280;46181;51.498;5.392;2023-04-08T07:28:39;102391;;;14.76;59.62695
59987;BME280;46181;51.498;5.392;2023-04-08T07:33:09;102397.4;;;14.85;59.62793
59987;BME280;46181;51.498;5.392;2023-04-08T07:37:39;102402.9;;;14.88;58.88281
59987;BME280;46181;51.498;5.392;2023-04-08T07:42:09;102407;;;14.72;58.69043
59987;BME280;46181;51.498;5.392;2023-04-08T07:46:39;102405;;;14.78;59.05078
59987;BME280;46181;51.498;5.392;2023-04-08T07:51:10;102408.7;;;14.7;58.46094
59987;BME280;46181;51.498;5.392;2023-04-08T07:55:41;102403.9;;;14.77;58.67383
59987;BME280;46181;51.498;5.392;2023-04-08T08:00:10;102408.4;;;14.85;58.51465
59987;BME280;46181;51.498;5.392;2023-04-08T08:04:39;102419.2;;;14.92;58.56934
59987;BME280;46181;51.498;5.392;2023-04-08T08:09:09;102425.4;;;14.96;58.52832
59987;BME280;46181;51.498;5.392;2023-04-08T08:13:39;102429;;;14.99;58.47656
59987;BME280;46181;51.498;5.392;2023-04-08T08:18:09;102431.5;;;15.04;58.03906
59987;BME280;46181;51.498;5.392;2023-04-08T08:22:39;102437.1;;;15.03;57.95801
59987;BME280;46181;51.498;5.392;2023-04-08T08:27:09;102433.2;;;15.09;57.91016
59987;BME280;46181;51.498;5.392;2023-04-08T08:31:39;102445.7;;;15.08;57.67969
59987;BME280;46181;51.498;5.392;2023-04-08T08:36:09;102445.8;;;15.08;57.37402
59987;BME280;46181;51.498;5.392;2023-04-08T08:40:39;102448.8;;;15.12;57.44727
59987;BME280;46181;51.498;5.392;2023-04-08T08:45:10;102454.4;;;15.55;57.30957
59987;BME280;46181;51.498;5.392;2023-04-08T08:49:39;102454.3;;;15.74;56.18359
59987;BME280;46181;51.498;5.392;2023-04-08T08:54:09;102457.9;;;15.65;55.98828
59987;BME280;46181;51.498;5.392;2023-04-08T08:58:39;102461;;;15.65;55.98828
59987;BME280;46181;51.498;5.392;2023-04-08T09:03:22;102462.4;;;15.61;56.13281
59987;BME280;46181;51.498;5.392;2023-04-08T09:07:43;102462.2;;;15.75;55.89941
59987;BME280;46181;51.498;5.392;2023-04-08T09:12:14;102470;;;15.78;55.84668
59987;BME280;46181;51.498;5.392;2023-04-08T09:16:41;102469.4;;;16.02;55.64844
59987;BME280;46181;51.498;5.392;2023-04-08T09:21:09;102472.4;;;16.26;55.54102
59987;BME280;46181;51.498;5.392;2023-04-08T09:25:40;102472.9;;;16.39;55.125
59987;BME280;46181;51.498;5.392;2023-04-08T09:30:21;102480.9;;;16.25;54.76367
59987;BME280;46181;51.498;5.392;2023-04-08T09:34:39;102487.7;;;16.13;54.41895
59987;BME280;46181;51.498;5.392;2023-04-08T09:39:09;102486.3;;;16.09;54.6416
59987;BME280;46181;51.498;5.392;2023-04-08T09:43:40;102488.2;;;16.06;54.61621
59987;BME280;46181;51.498;5.392;2023-04-08T09:48:15;102489.8;;;16.01;54.95117
59987;BME280;46181;51.498;5.392;2023-04-08T09:52:43;102493.5;;;16.01;54.62012
59987;BME280;46181;51.498;5.392;2023-04-08T09:57:12;102494.3;;;16.13;55
59987;BME280;46181;51.498;5.392;2023-04-08T10:01:42;102497.5;;;16.03;54.34863
59987;BME280;46181;51.498;5.392;2023-04-08T10:06:09;102493.4;;;16.17;55.07422
59987;BME280;46181;51.498;5.392;2023-04-08T10:10:40;102494.8;;;16.35;54.16016
59987;BME280;46181;51.498;5.392;2023-04-08T10:15:28;102497.3;;;16.36;54.00195
59987;BME280;46181;51.498;5.392;2023-04-08T10:19:48;102497;;;16.47;53.86523
59987;BME280;46181;51.498;5.392;2023-04-08T10:24:09;102504.1;;;16.51;53.26465
59987;BME280;46181;51.498;5.392;2023-04-08T10:28:39;102497.9;;;16.69;53.34473
59987;BME280;46181;51.498;5.392;2023-04-08T10:33:14;102494.7;;;16.75;52.97461
59987;BME280;46181;51.498;5.392;2023-04-08T10:37:39;102491.2;;;17.19;52.98145
59987;BME280;46181;51.498;5.392;2023-04-08T10:42:10;102494;;;17.39;52.24902
59987;BME280;46181;51.498;5.392;2023-04-08T10:46:45;102491.9;;;17.56;51.83398
59987;BME280;46181;51.498;5.392;2023-04-08T10:51:10;102490.3;;;17.58;51.24023
59987;BME280;46181;51.498;5.392;2023-04-08T10:55:39;102483.7;;;17.67;51.54883
59987;BME280;46181;51.498;5.392;2023-04-08T11:00:10;102468.5;;;17.85;51.01855
59987;BME280;46181;51.498;5.392;2023-04-08T11:04:40;102472.1;;;18.11;50.39355
59987;BME280;46181;51.498;5.392;2023-04-08T11:09:10;102469.2;;;18.14;50.01855
59987;BME280;46181;51.498;5.392;2023-04-08T11:13:40;102463;;;18.1;50.12988
59987;BME280;46181;51.498;5.392;2023-04-08T11:18:10;102462.8;;;18.09;50.54199
59987;BME280;46181;51.498;5.392;2023-04-08T11:22:39;102461.7;;;18.21;50.19922
59987;BME280;46181;51.498;5.392;2023-04-08T11:27:09;102459;;;17.9;49.76172
59987;BME280;46181;51.498;5.392;2023-04-08T11:31:40;102454;;;17.68;49.71582
59987;BME280;46181;51.498;5.392;2023-04-08T11:36:09;102457.8;;;17.55;49.73535
59987;BME280;46181;51.498;5.392;2023-04-08T11:40:39;102457.5;;;17.4;49.78711
59987;BME280;46181;51.498;5.392;2023-04-08T11:45:15;102458.3;;;17.29;49.82031
59987;BME280;46181;51.498;5.392;2023-04-08T11:49:51;102458.6;;;17.19;49.94727
59987;BME280;46181;51.498;5.392;2023-04-08T11:54:24;102460.3;;;17.21;49.90332
59987;BME280;46181;51.498;5.392;2023-04-08T11:58:39;102460.9;;;17.32;48.14941
59987;BME280;46181;51.498;5.392;2023-04-08T12:03:09;102458.6;;;17.33;48.0127
59987;BME280;46181;51.498;5.392;2023-04-08T12:07:39;102457.8;;;17.45;48.19922
59987;BME280;46181;51.498;5.392;2023-04-08T12:12:09;102458.7;;;17.45;46.94824
59987;BME280;46181;51.498;5.392;2023-04-08T12:16:39;102454.6;;;17.38;46.66504
59987;BME280;46181;51.498;5.392;2023-04-08T12:21:09;102451.8;;;17.47;47.09961
59987;BME280;46181;51.498;5.392;2023-04-08T12:25:39;102450.3;;;17.78;47.17871
59987;BME280;46181;51.498;5.392;2023-04-08T12:30:10;102448.4;;;18.03;46.66602
59987;BME280;46181;51.498;5.392;2023-04-08T12:34:39;102452.8;;;17.93;44.33301
59987;BME280;46181;51.498;5.392;2023-04-08T12:39:09;102441.4;;;17.9;44.42188
59987;BME280;46181;51.498;5.392;2023-04-08T12:43:39;102439.6;;;17.97;44.7168
59987;BME280;46181;51.498;5.392;2023-04-08T12:48:09;102442.6;;;18.06;43.64551
59987;BME280;46181;51.498;5.392;2023-04-08T12:52:39;102443.8;;;18.11;42.86719
59987;BME280;46181;51.498;5.392;2023-04-08T12:57:09;102434.7;;;18.15;42.54883
59987;BME280;46181;51.498;5.392;2023-04-08T13:01:39;102430.8;;;18.2;41.37988
59987;BME280;46181;51.498;5.392;2023-04-08T13:06:09;102429.1;;;18.16;41.61816
59987;BME280;46181;51.498;5.392;2023-04-08T13:10:39;102427.2;;;18.28;41.18066
59987;BME280;46181;51.498;5.392;2023-04-08T13:15:10;102426.8;;;18.45;40.20508
59987;BME280;46181;51.498;5.392;2023-04-08T13:19:39;102424.2;;;18.71;39.12207
59987;BME280;46181;51.498;5.392;2023-04-08T13:24:09;102415.6;;;19;39.13477
59987;BME280;46181;51.498;5.392;2023-04-08T13:28:39;102418.1;;;19.49;38.26563
59987;BME280;46181;51.498;5.392;2023-04-08T13:33:09;102413.8;;;20.24;37.5791
59987;BME280;46181;51.498;5.392;2023-04-08T13:37:39;102407.2;;;20.61;36.77539
59987;BME280;46181;51.498;5.392;2023-04-08T13:42:09;102400.9;;;20.53;36.40918
59987;BME280;46181;51.498;5.392;2023-04-08T13:46:39;102403.7;;;20.67;37.07031
59987;BME280;46181;51.498;5.392;2023-04-08T13:51:09;102405.8;;;20.74;36.63574
59987;BME280;46181;51.498;5.392;2023-04-08T13:55:39;102407.8;;;20.73;37.09766
59987;BME280;46181;51.498;5.392;2023-04-08T14:00:10;102409.6;;;20.67;36.67676
59987;BME280;46181;51.498;5.392;2023-04-08T14:04:39;102401.8;;;20.47;36.28809
59987;BME280;46181;51.498;5.392;2023-04-08T14:09:09;102397.7;;;20.12;36.58496
59987;BME280;46181;51.498;5.392;2023-04-08T14:13:39;102400;;;20.01;37.1543
59987;BME280;46181;51.498;5.392;2023-04-08T14:18:09;102395.4;;;20.02;37.36328
59987;BME280;46181;51.498;5.392;2023-04-08T14:22:39;102393;;;19.95;37.19531
59987;BME280;46181;51.498;5.392;2023-04-08T14:27:09;102392.8;;;19.93;36.67285
59987;BME280;46181;51.498;5.392;2023-04-08T14:31:39;102389.5;;;20.01;36.51758
59987;BME280;46181;51.498;5.392;2023-04-08T14:36:10;102392.2;;;19.85;36.78125
59987;BME280;46181;51.498;5.392;2023-04-08T14:40:39;102395.5;;;19.58;36.4707
59987;BME280;46181;51.498;5.392;2023-04-08T14:45:10;102385.4;;;19.39;36.16602
59987;BME280;46181;51.498;5.392;2023-04-08T14:49:39;102381.2;;;19.14;36.06445
59987;BME280;46181;51.498;5.392;2023-04-08T14:54:09;102385.3;;;19.03;36.22852
59987;BME280;46181;51.498;5.392;2023-04-08T14:58:39;102382.1;;;19.02;35.93945
59987;BME280;46181;51.498;5.392;2023-04-08T15:03:09;102390.9;;;18.99;35.77539
59987;BME280;46181;51.498;5.392;2023-04-08T15:07:39;102385;;;19.06;36.41602
59987;BME280;46181;51.498;5.392;2023-04-08T15:12:09;102377.9;;;19.14;36.45703
59987;BME280;46181;51.498;5.392;2023-04-08T15:16:39;102377.5;;;19.23;36.32617
59987;BME280;46181;51.498;5.392;2023-04-08T15:21:09;102368.5;;;19.57;35.85645
59987;BME280;46181;51.498;5.392;2023-04-08T15:25:39;102360;;;19.86;35.23242
59987;BME280;46181;51.498;5.392;2023-04-08T15:30:10;102357.1;;;20.19;35.50098
59987;BME280;46181;51.498;5.392;2023-04-08T15:34:39;102364.1;;;20.24;35.13477
59987;BME280;46181;51.498;5.392;2023-04-08T15:39:09;102362.9;;;20.09;35.44824
59987;BME280;46181;51.498;5.392;2023-04-08T15:43:39;102366.1;;;20;35.53223
59987;BME280;46181;51.498;5.392;2023-04-08T15:48:09;102363.1;;;20.18;35.97461
59987;BME280;46181;51.498;5.392;2023-04-08T15:52:39;102363.9;;;20.49;36.03516
59987;BME280;46181;51.498;5.392;2023-04-08T15:57:09;102366;;;20.68;35.4707
59987;BME280;46181;51.498;5.392;2023-04-08T16:01:39;102372.7;;;20.57;34.96387
59987;BME280;46181;51.498;5.392;2023-04-08T16:06:10;102369.1;;;20.54;34.79785
59987;BME280;46181;51.498;5.392;2023-04-08T16:10:39;102381.2;;;20.48;34.875
59987;BME280;46181;51.498;5.392;2023-04-08T16:15:10;102379.7;;;20.32;35.09473
59987;BME280;46181;51.498;5.392;2023-04-08T16:19:39;102381.7;;;20.04;35.07324
59987;BME280;46181;51.498;5.392;2023-04-08T16:24:09;102387.3;;;19.77;35.47949
59987;BME280;46181;51.498;5.392;2023-04-08T16:28:39;102380;;;19.51;35.67773
59987;BME280;46181;51.498;5.392;2023-04-08T16:33:09;102383;;;19.39;35.85352
59987;BME280;46181;51.498;5.392;2023-04-08T16:37:40;102383.5;;;19.31;35.92773
59987;BME280;46181;51.498;5.392;2023-04-08T16:42:09;102390.1;;;19.23;35.9209
59987;BME280;46181;51.498;5.392;2023-04-08T16:46:39;102392;;;19.13;35.71582
59987;BME280;46181;51.498;5.392;2023-04-08T16:51:11;102392;;;19.02;36.10059
59987;BME280;46181;51.498;5.392;2023-04-08T16:55:39;102394.4;;;18.98;36.09766
59987;BME280;46181;51.498;5.392;2023-04-08T17:00:10;102393.6;;;18.81;36.28027
59987;BME280;46181;51.498;5.392;2023-04-08T17:04:39;102387.6;;;18.67;36.60352
59987;BME280;46181;51.498;5.392;2023-04-08T17:09:09;102394.1;;;18.55;36.59375
59987;BME280;46181;51.498;5.392;2023-04-08T17:13:40;102396.4;;;18.43;36.96387
59987;BME280;46181;51.498;5.392;2023-04-08T17:18:09;102396.1;;;18.3;37.1377
59987;BME280;46181;51.498;5.392;2023-04-08T17:22:39;102395.3;;;18.14;37.37793
59987;BME280;46181;51.498;5.392;2023-04-08T17:27:09;102396.6;;;17.99;37.48047
59987;BME280;46181;51.498;5.392;2023-04-08T17:31:39;102402.6;;;17.82;37.58008
59987;BME280;46181;51.498;5.392;2023-04-08T17:36:10;102401;;;17.62;37.86328
59987;BME280;46181;51.498;5.392;2023-04-08T17:40:39;102397.1;;;17.42;38.19141
59987;BME280;46181;51.498;5.392;2023-04-08T17:45:10;102398.6;;;17.26;38.625
59987;BME280;46181;51.498;5.392;2023-04-08T17:49:39;102398;;;17.1;39.12793
59987;BME280;46181;51.498;5.392;2023-04-08T17:54:09;102398;;;16.94;39.6084
59987;BME280;46181;51.498;5.392;2023-04-08T17:58:39;102399.1;;;16.8;40.21582
59987;BME280;46181;51.498;5.392;2023-04-08T18:03:09;102398.8;;;16.64;40.45313
59987;BME280;46181;51.498;5.392;2023-04-08T18:07:39;102405.3;;;16.52;41.11914
59987;BME280;46181;51.498;5.392;2023-04-08T18:12:09;102405.8;;;16.39;41.91016
59987;BME280;46181;51.498;5.392;2023-04-08T18:16:39;102411.4;;;16.29;42.8291
59987;BME280;46181;51.498;5.392;2023-04-08T18:21:09;102415.9;;;16.19;43.48242
59987;BME280;46181;51.498;5.392;2023-04-08T18:25:39;102420.8;;;16.09;44.42383
59987;BME280;46181;51.498;5.392;2023-04-08T18:30:10;102421;;;15.99;44.94043
59987;BME280;46181;51.498;5.392;2023-04-08T18:34:39;102421.7;;;15.86;45.39551
59987;BME280;46181;51.498;5.392;2023-04-08T18:39:09;102425.4;;;15.74;45.79492
59987;BME280;46181;51.498;5.392;2023-04-08T18:43:39;102434.7;;;15.64;46.36719
59987;BME280;46181;51.498;5.392;2023-04-08T18:48:09;102438.8;;;15.57;46.98828
59987;BME280;46181;51.498;5.392;2023-04-08T18:52:39;102447.5;;;15.49;47.37988
59987;BME280;46181;51.498;5.392;2023-04-08T18:57:09;102450.9;;;15.39;47.60742
59987;BME280;46181;51.498;5.392;2023-04-08T19:01:39;102454.4;;;15.32;47.97852
59987;BME280;46181;51.498;5.392;2023-04-08T19:06:12;102451.7;;;15.23;48.32129
59987;BME280;46181;51.498;5.392;2023-04-08T19:10:41;102451.4;;;15.17;48.6123
59987;BME280;46181;51.498;5.392;2023-04-08T19:15:10;102455.5;;;15.13;48.89258
59987;BME280;46181;51.498;5.392;2023-04-08T19:19:39;102459.9;;;15.05;49.45508
59987;BME280;46181;51.498;5.392;2023-04-08T19:24:09;102465.7;;;15;49.56152
59987;BME280;46181;51.498;5.392;2023-04-08T19:28:39;102465.7;;;14.91;50.23535
59987;BME280;46181;51.498;5.392;2023-04-08T19:33:10;102465;;;14.86;50.26465
59987;BME280;46181;51.498;5.392;2023-04-08T19:37:39;102467.9;;;14.78;50.62109
59987;BME280;46181;51.498;5.392;2023-04-08T19:42:09;102466.1;;;14.72;51.02344
59987;BME280;46181;51.498;5.392;2023-04-08T19:46:40;102467.3;;;14.68;51.23438
59987;BME280;46181;51.498;5.392;2023-04-08T19:51:12;102463.8;;;14.64;51.42285
59987;BME280;46181;51.498;5.392;2023-04-08T19:55:39;102471.4;;;14.57;51.62012
59987;BME280;46181;51.498;5.392;2023-04-08T20:00:10;102467.1;;;14.55;51.77734
59987;BME280;46181;51.498;5.392;2023-04-08T20:04:39;102468.9;;;14.5;52.05566
59987;BME280;46181;51.498;5.392;2023-04-08T20:09:09;102475.4;;;14.49;52.21484
59987;BME280;46181;51.498;5.392;2023-04-08T20:13:39;102476;;;14.57;52.34863
59987;BME280;46181;51.498;5.392;2023-04-08T20:18:10;102480.3;;;14.74;52.33398
59987;BME280;46181;51.498;5.392;2023-04-08T20:22:40;102484.3;;;14.93;52.3457
59987;BME280;46181;51.498;5.392;2023-04-08T20:27:09;102485.9;;;15.08;52.03418
59987;BME280;46181;51.498;5.392;2023-04-08T20:31:39;102486.7;;;15.2;51.95508
59987;BME280;46181;51.498;5.392;2023-04-08T20:36:09;102484.7;;;15.32;51.98145
59987;BME280;46181;51.498;5.392;2023-04-08T20:40:40;102487.1;;;15.43;51.91504
59987;BME280;46181;51.498;5.392;2023-04-08T20:45:10;102487.2;;;15.5;51.68457
59987;BME280;46181;51.498;5.392;2023-04-08T20:49:39;102481.6;;;15.57;51.79492
59987;BME280;46181;51.498;5.392;2023-04-08T20:54:09;102479.4;;;15.6;51.58203
59987;BME280;46181;51.498;5.392;2023-04-08T20:58:39;102474.6;;;15.64;51.63086
59987;BME280;46181;51.498;5.392;2023-04-08T21:03:09;102477.1;;;15.68;51.62598
59987;BME280;46181;51.498;5.392;2023-04-08T21:07:39;102477.7;;;15.71;51.62793
59987;BME280;46181;51.498;5.392;2023-04-08T21:12:09;102472.4;;;15.71;51.68555
59987;BME280;46181;51.498;5.392;2023-04-08T21:16:39;102474.9;;;15.72;51.60742
59987;BME280;46181;51.498;5.392;2023-04-08T21:21:09;102477.9;;;15.73;51.68848
59987;BME280;46181;51.498;5.392;2023-04-08T21:25:39;102479.4;;;15.73;51.79102
59987;BME280;46181;51.498;5.392;2023-04-08T21:30:10;102478.7;;;15.75;51.81641
59987;BME280;46181;51.498;5.392;2023-04-08T21:34:39;102482;;;15.79;51.92285
59987;BME280;46181;51.498;5.392;2023-04-08T21:39:09;102489.2;;;15.77;51.81836
59987;BME280;46181;51.498;5.392;2023-04-08T21:43:39;102488.2;;;15.75;51.92969
59987;BME280;46181;51.498;5.392;2023-04-08T21:48:09;102483.7;;;15.73;51.99609
59987;BME280;46181;51.498;5.392;2023-04-08T21:52:39;102488;;;15.73;52.14453
59987;BME280;46181;51.498;5.392;2023-04-08T21:57:09;102484.7;;;15.72;52.1084
59987;BME280;46181;51.498;5.392;2023-04-08T22:01:39;102480.9;;;15.72;52.0752
59987;BME280;46181;51.498;5.392;2023-04-08T22:06:10;102481.1;;;15.76;52.03418
59987;BME280;46181;51.498;5.392;2023-04-08T22:10:40;102482.5;;;15.76;52
59987;BME280;46181;51.498;5.392;2023-04-08T22:15:10;102485.6;;;15.71;51.93652
59987;BME280;46181;51.498;5.392;2023-04-08T22:19:39;102482.9;;;15.67;51.94336
59987;BME280;46181;51.498;5.392;2023-04-08T22:24:09;102486.5;;;15.66;52.125
59987;BME280;46181;51.498;5.392;2023-04-08T22:28:39;102483.8;;;15.64;52.17871
59987;BME280;46181;51.498;5.392;2023-04-08T22:33:09;102485.8;;;15.6;52.09473
59987;BME280;46181;51.498;5.392;2023-04-08T22:37:40;102485.7;;;15.61;52.01563
59987;BME280;46181;51.498;5.392;2023-04-08T22:42:09;102488;;;15.57;52.08008
59987;BME280;46181;51.498;5.392;2023-04-08T22:46:39;102485.6;;;15.58;52.12695
59987;BME280;46181;51.498;5.392;2023-04-08T22:51:09;102489.3;;;15.59;52.00293
59987;BME280;46181;51.498;5.392;2023-04-08T22:55:40;102485.4;;;15.59;52.07031
59987;BME280;46181;51.498;5.392;2023-04-08T23:00:11;102479.3;;;15.58;52.12695
59987;BME280;46181;51.498;5.392;2023-04-08T23:04:39;102479.3;;;15.61;52.11914